Flight Track Log - Related Links

Times and Time Zones

All times are in EDT time to prevent confusion due to time zone crossing. See the N5219N flight status page for this flight to view local times or setup timezone preferences in your user account.

Time Position Orientation Groundspeed Altitude Reporting Facility
EDT Latitude Longitude Course Direction KTS MPH feet Rate Location/Type
Tue 03:13:48 PM 32.8333 -97.3667 360° North 90 104 1,100  Level Dallas / Fort Worth TRACON
Tue 03:15:06 PM 32.8500 -97.3667 360° North 81 93 2,200 755 Climbing Dallas / Fort Worth TRACON
Tue 03:16:11 PM 32.8750 -97.3789 338° Northwest 89 102 2,900 672 Climbing Fort Worth Center
Tue 03:17:11 PM 32.8961 -97.3714 17° North 84 97 3,600 700 Climbing Fort Worth Center
Tue 03:18:11 PM 32.9253 -97.3614 16° North 89 102 4,300 555 Climbing Fort Worth Center
Tue 03:19:10 PM 32.9481 -97.3589 North 89 102 4,700 555 Climbing Fort Worth Center
Tue 03:20:10 PM 32.9753 -97.3564 North 84 97 5,400 595 Climbing Fort Worth Center
Tue 03:21:11 PM 32.9983 -97.3539 North 84 97 5,900 298 Climbing Fort Worth Center
Tue 03:22:11 PM 33.0294 -97.3467 11° North 90 104 6,000 300 Climbing Fort Worth Center
Tue 03:23:11 PM 33.0506 -97.3467 360° North 95 109 6,500 450 Climbing Fort Worth Center
Tue 03:24:11 PM 33.0839 -97.3392 11° North 95 109 6,900 350 Climbing Fort Worth Center
Tue 03:25:11 PM 33.1131 -97.3342 North 106 122 7,200 50 Climbing Fort Worth Center
Tue 03:26:11 PM 33.1528 -97.3267 North 121 139 7,000 -150 Descending Fort Worth Center
Tue 03:27:11 PM 33.1839 -97.3192 11° North 126 145 6,900  Descending Fort Worth Center
Tue 03:28:11 PM 33.2175 -97.3042 20° North 121 139 7,000  Climbing Fort Worth Center
Tue 03:29:11 PM 33.2444 -97.2892 25° Northeast 121 139 6,900  Descending Fort Worth Center
Tue 03:30:11 PM 33.2778 -97.2694 26° Northeast 116 133 7,000 50 Climbing Fort Worth Center
Tue 03:31:11 PM 33.3050 -97.2544 25° Northeast 111 128 7,000  Level Fort Worth Center
Tue 03:32:11 PM 33.3383 -97.2344 27° Northeast 116 133 7,000  Level Fort Worth Center
Tue 03:33:11 PM 33.3656 -97.2194 25° Northeast 116 133 7,000  Level Fort Worth Center
Tue 03:34:11 PM 33.3989 -97.1994 27° Northeast 111 128 7,000 50 Level Fort Worth Center
Tue 03:35:11 PM 33.4303 -97.1744 34° Northeast 120 138 7,100 -50 Climbing Fort Worth Center
Tue 03:36:11 PM 33.4550 -97.1494 40° Northeast 125 144 6,900 50 Descending Fort Worth Center
Tue 03:37:11 PM 33.4822 -97.1219 40° Northeast 125 144 7,200 400 Climbing Fort Worth Center
Tue 03:38:11 PM 33.5031 -97.1019 39° Northeast 109 125 7,700 550 Climbing Fort Worth Center
Tue 03:39:11 PM 33.5258 -97.0819 36° Northeast 97 112 8,300 500 Climbing Fort Worth Center
Tue 03:40:11 PM 33.5467 -97.0619 39° Northeast 97 112 8,700 350 Climbing Fort Worth Center
Tue 03:41:11 PM 33.5697 -97.0419 36° Northeast 97 112 9,000 100 Climbing Fort Worth Center
Tue 03:42:11 PM 33.5947 -97.0194 37° Northeast 105 121 8,900 -150 Descending Fort Worth Center
Tue 03:43:11 PM 33.6239 -96.9969 33° Northeast 110 127 8,700 150 Descending Fort Worth Center
Tue 03:44:11 PM 33.6447 -96.9769 39° Northeast 105 121 9,200 500 Climbing Fort Worth Center
Tue 03:45:11 PM 33.6633 -96.9592 38° Northeast 99 114 9,700 400 Climbing Fort Worth Center
Tue 03:46:11 PM 33.6819 -96.9342 48° Northeast 94 108 10,000 300 Climbing Fort Worth Center
Tue 03:47:11 PM 33.6986 -96.9117 48° Northeast 89 102 10,300 400 Climbing Fort Worth Center
Tue 03:48:11 PM 33.7172 -96.8917 42° Northeast 89 102 10,800 350 Climbing Fort Worth Center
Tue 03:49:11 PM 33.7381 -96.8739 35° Northeast 89 102 11,000 100 Climbing Fort Worth Center
Tue 03:50:11 PM 33.7631 -96.8514 37° Northeast 99 114 11,000  Level Fort Worth Center
Tue 03:51:11 PM 33.7922 -96.8261 36° Northeast 116 133 11,000 -50 Level Fort Worth Center
Tue 03:52:11 PM 33.8172 -96.8033 37° Northeast 116 133 10,900 -50 Descending Fort Worth Center
Tue 03:53:11 PM 33.8419 -96.7783 40° Northeast 116 133 10,900 50 Level Fort Worth Center
Tue 03:54:11 PM 33.8689 -96.7531 38° Northeast 111 128 11,000  Climbing Fort Worth Center
Tue 03:55:11 PM 33.8939 -96.7278 40° Northeast 111 128 10,900 -50 Descending Fort Worth Center
Tue 03:56:11 PM 33.9167 -96.7028 42° Northeast 111 128 10,900 50 Level Fort Worth Center
Tue 03:57:11 PM 33.9417 -96.6775 40° Northeast 111 128 11,000 50 Climbing Fort Worth Center
Tue 03:58:11 PM 33.9667 -96.6522 40° Northeast 111 128 11,000  Level Fort Worth Center
Tue 03:59:11 PM 33.9914 -96.6269 40° Northeast 111 128 11,000 -50 Level Fort Worth Center
Tue 04:00:11 PM 34.0183 -96.5992 41° Northeast 111 128 10,900 -50 Descending Fort Worth Center
Tue 04:01:11 PM 34.0433 -96.5739 40° Northeast 111 128 10,900 50 Level Fort Worth Center
Tue 04:02:11 PM 34.0661 -96.5461 45° Northeast 111 128 11,000 50 Climbing Fort Worth Center
Tue 04:03:11 PM 34.0908 -96.5206 41° Northeast 111 128 11,000  Level Fort Worth Center
Tue 04:04:11 PM 34.1158 -96.5028 30° Northeast 106 122 11,000  Level Fort Worth Center
Tue 04:05:11 PM 34.1428 -96.4825 32° Northeast 106 122 11,000 -50 Level Fort Worth Center
Tue 04:06:11 PM 34.1697 -96.4547 40° Northeast 111 128 10,900 -50 Descending Fort Worth Center
Tue 04:07:11 PM 34.1947 -96.4342 34° Northeast 111 128 10,900  Level Fort Worth Center
Tue 04:08:11 PM 34.2214 -96.4064 41° Northeast 111 128 10,900  Level Fort Worth Center
Tue 04:09:11 PM 34.2483 -96.3808 38° Northeast 111 128 10,900  Level Fort Worth Center
Tue 04:10:11 PM 34.2753 -96.3578 35° Northeast 106 122 10,900 50 Level Fort Worth Center
Tue 04:11:11 PM 34.3022 -96.3325 38° Northeast 106 122 11,000  Climbing Fort Worth Center
Tue 04:12:11 PM 34.3269 -96.3069 40° Northeast 111 128 10,900  Descending Fort Worth Center
Tue 04:13:11 PM 34.3497 -96.2842 40° Northeast 111 128 11,000 50 Climbing Fort Worth Center
Tue 04:14:11 PM 34.3767 -96.2536 43° Northeast 111 128 11,000  Level Fort Worth Center
Tue 04:15:11 PM 34.4014 -96.2306 38° Northeast 106 122 11,000  Level Fort Worth Center
Tue 04:16:11 PM 34.4264 -96.2075 37° Northeast 106 122 11,000 -50 Level Fort Worth Center
Tue 04:17:11 PM 34.4531 -96.1769 43° Northeast 106 122 10,900  Descending Fort Worth Center
Tue 04:18:11 PM 34.4781 -96.1514 40° Northeast 106 122 11,000  Climbing Fort Worth Center
Tue 04:19:11 PM 34.5028 -96.1283 38° Northeast 106 122 10,900 -50 Descending Fort Worth Center
Tue 04:20:11 PM 34.5317 -96.1028 36° Northeast 106 122 10,900 50 Level Fort Worth Center
Tue 04:21:11 PM 34.5544 -96.0772 43° Northeast 106 122 11,000 50 Climbing Fort Worth Center
Tue 04:22:11 PM 34.5833 -96.0489 39° Northeast 111 128 11,000  Level Fort Worth Center
Tue 04:23:11 PM 34.6058 -96.0258 40° Northeast 111 128 11,000  Level Fort Worth Center
Tue 04:24:11 PM 34.6328 -95.9978 41° Northeast 111 128 11,000 -50 Level Fort Worth Center
Tue 04:25:11 PM 34.6575 -95.9747 37° Northeast 111 128 10,900 -50 Descending Fort Worth Center
Tue 04:26:11 PM 34.6844 -95.9489 38° Northeast 111 128 10,900  Level Fort Worth Center
Tue 04:27:11 PM 34.7092 -95.9231 41° Northeast 111 128 10,900  Level Fort Worth Center
Tue 04:28:11 PM 34.7358 -95.9000 35° Northeast 111 128 10,900  Level Fort Worth Center
Tue 04:29:11 PM 34.7628 -95.8742 38° Northeast 111 128 10,900 50 Level Fort Worth Center
Tue 04:30:11 PM 34.7894 -95.8458 41° Northeast 111 128 11,000 50 Climbing Fort Worth Center
Tue 04:31:11 PM 34.8142 -95.8253 34° Northeast 111 128 11,000  Level Fort Worth Center
Tue 04:32:11 PM 34.8369 -95.7944 48° Northeast 111 128 11,000  Level Fort Worth Center
Tue 04:33:11 PM 34.8614 -95.7636 46° Northeast 111 128 11,000 -50 Level Fort Worth Center
Tue 04:34:11 PM 34.8861 -95.7378 41° Northeast 111 128 10,900 -250 Descending Fort Worth Center
Tue 04:35:11 PM 34.9169 -95.7044 42° Northeast 127 146 10,500 -500 Descending Fort Worth Center
Tue 04:36:11 PM 34.9436 -95.6658 50° Northeast 137 158 9,900 -600 Descending Fort Worth Center
Tue 04:37:11 PM 34.9722 -95.6347 42° Northeast 137 158 9,300 -600 Descending Fort Worth Center
Tue 04:38:11 PM 35.0011 -95.5986 46° Northeast 143 165 8,700 -600 Descending Fort Worth Center
Tue 04:39:11 PM 35.0278 -95.5653 46° Northeast 143 165 8,100 -550 Descending Fort Worth Center
Tue 04:40:11 PM 35.0522 -95.5292 50° Northeast 143 165 7,600 -450 Descending Fort Worth Center
Tue 04:41:11 PM 35.0808 -95.5006 39° Northeast 143 165 7,200 -450 Descending Fort Worth Center
Tue 04:42:11 PM 35.1097 -95.4669 44° Northeast 143 165 6,700 -450 Descending Fort Worth Center
Tue 04:43:11 PM 35.1383 -95.4358 42° Northeast 138 159 6,300 -350 Descending Fort Worth Center
Tue 04:44:11 PM 35.1628 -95.4075 43° Northeast 138 159 6,000 -200 Descending Fort Worth Center
Tue 04:45:11 PM 35.1894 -95.3789 41° Northeast 131 151 5,900 50 Descending Fort Worth Center
Tue 04:46:11 PM 35.2161 -95.3478 44° Northeast 131 151 6,100 50 Climbing Fort Worth Center
Tue 04:47:11 PM 35.2450 -95.3189 39° Northeast 131 151 6,000 -100 Descending Fort Worth Center
Tue 04:49:00 PM 35.2888 -95.2643 45° Northeast  Level FlightAware Approximate
Tue 04:56:00 PM 35.4573 -95.0536 45° Northeast  Level FlightAware Approximate
Tue 04:57:00 PM 35.4813 -95.0234 46° Northeast  Level FlightAware Approximate
Tue 04:58:00 PM 35.5059 -94.9932 44° Northeast  Level FlightAware Approximate
Tue 04:59:00 PM 35.5307 -94.9640 44° Northeast  Level FlightAware Approximate
Tue 05:00:00 PM 35.5556 -94.9348 44° Northeast  Level FlightAware Approximate
Tue 05:01:00 PM 35.5805 -94.9057 44° Northeast  Level FlightAware Approximate
Tue 05:02:00 PM 35.6054 -94.8765 44° Northeast  Level FlightAware Approximate
Tue 05:03:00 PM 35.6302 -94.8472 44° Northeast  Level FlightAware Approximate
Tue 05:04:00 PM 35.6551 -94.8180 44° Northeast  Level FlightAware Approximate
Tue 05:05:00 PM 35.6799 -94.7887 44° Northeast  Level FlightAware Approximate
Tue 05:06:00 PM 35.7048 -94.7595 44° Northeast  Level FlightAware Approximate
Tue 05:07:00 PM 35.7296 -94.7302 44° Northeast  Level FlightAware Approximate
Tue 05:08:00 PM 35.7544 -94.7009 44° Northeast  Level FlightAware Approximate
Tue 05:09:00 PM 35.7792 -94.6715 44° Northeast  Level FlightAware Approximate

Login

Don't have an account? Register now (free) for customized features, flight alerts, and more!